Time;durP1;ratioP1;P1;durP2;ratioP2;P2;SDS_P1;SDS_P2;PMS_P1;PMS_P2;Temp;Humidity;BMP_temperature;BMP_pressure;BME280_temperature;BME280_humidity;BME280_pressure;Samples;Min_cycle;Max_cycle;Signal;HPM_P1;HPM_P2
2022/12/18 00:01:35;;;;;;;56.63;21.40;;;;;;;-5.16;100.00;101848.00;8288938;28;20049;-54
2022/12/18 00:05:36;;;;;;;48.88;19.27;;;;;;;-5.25;100.00;101843.66;8278417;28;20561;-56
2022/12/18 00:09:36;;;;;;;56.42;21.58;;;;;;;-5.37;100.00;101833.19;8290680;28;20499;-53
2022/12/18 00:13:37;;;;;;;56.58;22.08;;;;;;;-5.34;100.00;101838.44;8290705;28;20461;-55
2022/12/18 00:17:38;;;;;;;58.85;21.10;;;;;;;-5.39;100.00;101860.44;8290428;28;20475;-56
2022/12/18 00:21:38;;;;;;;65.50;23.20;;;;;;;-5.46;100.00;101853.47;8290473;28;20038;-53
2022/12/18 00:25:39;;;;;;;62.00;24.95;;;;;;;-5.46;100.00;101859.59;8290433;28;20030;-55
2022/12/18 00:29:39;;;;;;;68.35;26.58;;;;;;;-5.38;100.00;101857.81;8290117;28;20046;-53
2022/12/18 00:33:41;;;;;;;45.97;20.92;;;;;;;-5.32;100.00;101849.84;8290279;28;20459;-54
2022/12/18 00:37:43;;;;;;;58.50;22.95;;;;;;;-5.40;100.00;101849.00;8289688;28;20064;-55
2022/12/18 00:43:01;;;;;;;50.65;20.33;;;;;;;-5.41;100.00;101860.44;8289948;28;20069;-56
2022/12/18 00:46:06;;;;;;;60.63;22.75;;;;;;;-5.38;100.00;101862.19;8289223;28;20049;-52
2022/12/18 00:50:07;;;;;;;54.70;21.73;;;;;;;-5.32;100.00;101854.25;8272210;28;20042;-55
2022/12/18 00:54:08;;;;;;;70.53;25.25;;;;;;;-5.29;100.00;101851.59;8282367;28;20038;-56
2022/12/18 00:58:10;;;;;;;69.13;24.88;;;;;;;-5.35;100.00;101852.50;8276168;28;20057;-51
2022/12/18 01:02:11;;;;;;;64.80;23.45;;;;;;;-5.35;100.00;101847.25;8289293;28;20363;-55
2022/12/18 01:06:13;;;;;;;64.22;22.55;;;;;;;-5.33;100.00;101856.03;8286576;28;20038;-53
2022/12/18 01:10:13;;;;;;;58.88;24.50;;;;;;;-5.30;100.00;101842.84;8286541;28;20044;-54
2022/12/18 01:14:14;;;;;;;51.85;20.70;;;;;;;-5.27;100.00;101850.72;8287470;28;20530;-52
2022/12/18 01:18:15;;;;;;;67.93;23.58;;;;;;;-5.21;100.00;101848.03;8289498;28;20040;-55
2022/12/18 01:22:15;;;;;;;57.03;21.52;;;;;;;-5.08;100.00;101852.34;8289737;28;20073;-54
2022/12/18 01:26:16;;;;;;;49.90;19.90;;;;;;;-5.10;100.00;101838.28;8288933;28;20045;-55
2022/12/18 01:30:17;;;;;;;53.30;21.27;;;;;;;-5.00;100.00;101837.31;8289073;28;20049;-52
2022/12/18 01:34:19;;;;;;;53.50;22.05;;;;;;;-5.03;100.00;101831.22;8293807;28;20044;-54
2022/12/18 01:38:20;;;;;;;53.97;20.30;;;;;;;-4.99;100.00;101839.09;8294750;28;20037;-55
2022/12/18 01:42:21;;;;;;;47.33;19.30;;;;;;;-4.97;100.00;101836.44;8292253;28;20538;-56
2022/12/18 01:46:23;;;;;;;52.67;19.05;;;;;;;-4.93;100.00;101836.41;8292179;28;20091;-55
2022/12/18 01:50:32;;;;;;;39.43;17.57;;;;;;;-4.97;100.00;101833.81;8292323;28;20518;-55
2022/12/18 01:54:33;;;;;;;54.42;20.58;;;;;;;-5.01;100.00;101832.94;8291612;28;20030;-53
2022/12/18 01:58:56;;;;;;;55.13;19.58;;;;;;;-5.03;100.00;101834.72;8293136;28;20517;-55
2022/12/18 02:02:57;;;;;;;;;;;;;;;-5.09;100.00;101834.75;8295136;28;20041;-54
2022/12/18 02:07:14;;;;;;;60.15;20.55;;;;;;;-5.11;100.00;101830.38;8294595;28;19929;-54
2022/12/18 02:11:39;;;;;;;54.67;18.63;;;;;;;-5.12;100.00;101832.13;8294521;28;20040;-52
2022/12/18 02:16:02;;;;;;;58.50;22.38;;;;;;;-5.11;100.00;101836.53;8294409;28;20066;-52
2022/12/18 02:24:45;;;;;;;61.88;19.83;;;;;;;-5.03;100.00;101834.72;8368957;27;20472;-55
2022/12/18 02:28:53;;;;;;;57.85;20.45;;;;;;;-4.95;100.00;101827.63;8367520;28;20418;-55
2022/12/18 02:32:55;;;;;;;47.75;18.92;;;;;;;-4.97;100.00;101826.75;8367960;28;20040;-56
2022/12/18 02:37:00;;;;;;;60.30;21.13;;;;;;;-5.03;100.00;101826.78;8367672;28;20521;-56
2022/12/18 02:41:04;;;;;;;54.20;20.30;;;;;;;-5.05;100.00;101817.16;8368185;28;20036;-54
2022/12/18 02:45:05;;;;;;;52.40;21.95;;;;;;;-5.08;100.00;101820.72;8367631;28;20578;-55
2022/12/18 02:49:38;;;;;;;47.30;20.30;;;;;;;-5.05;100.00;101818.06;8367348;28;20036;-56
2022/12/18 02:53:49;;;;;;;48.95;17.30;;;;;;;-5.07;100.00;101818.94;8367574;28;20095;-52
2022/12/18 02:58:05;;;;;;;52.10;20.92;;;;;;;-5.10;100.00;101833.00;8368439;28;20030;-55
2022/12/18 03:02:36;;;;;;;49.00;19.65;;;;;;;-5.11;100.00;101831.28;8358754;28;20038;-53
2022/12/18 03:06:41;;;;;;;45.95;20.70;;;;;;;-5.14;100.00;101826.03;8367231;28;20052;-55
2022/12/18 03:10:53;;;;;;;54.17;20.25;;;;;;;-5.17;100.00;101812.88;8366960;28;20029;-55
2022/12/18 03:15:16;;;;;;;46.83;17.38;;;;;;;-5.06;100.00;101821.56;8363097;28;20037;-52
2022/12/18 03:19:21;;;;;;;51.40;17.95;;;;;;;-5.04;100.00;101817.16;8366285;28;20575;-51
2022/12/18 03:23:29;;;;;;;50.33;19.00;;;;;;;-5.02;100.00;101799.56;8366335;28;20033;-52
2022/12/18 03:27:33;;;;;;;52.05;19.17;;;;;;;-5.06;100.00;101803.09;8364604;28;20139;-52
2022/12/18 03:31:42;;;;;;;51.97;17.88;;;;;;;-5.07;100.00;101787.28;8363558;28;20091;-53
2022/12/18 03:35:43;;;;;;;44.42;19.70;;;;;;;-5.09;100.00;101797.84;8343538;28;20096;-52
2022/12/18 03:39:45;;;;;;;49.60;21.00;;;;;;;-5.09;100.00;101797.00;8344237;28;20121;-53
2022/12/18 03:44:14;;;;;;;54.50;18.77;;;;;;;-5.10;100.00;101789.97;8343702;28;20284;-55
2022/12/18 03:48:28;;;;;;;54.05;19.27;;;;;;;-5.13;100.00;101790.00;8339379;28;20119;-52
2022/12/18 03:52:38;;;;;;;50.80;20.42;;;;;;;-5.12;100.00;101782.06;8345165;28;20409;-53
2022/12/18 03:56:45;;;;;;;48.72;18.95;;;;;;;-5.05;100.00;101777.63;8344542;28;20042;-51
2022/12/18 04:00:48;;;;;;;46.85;18.90;;;;;;;-4.98;100.00;101772.28;8343418;28;20405;-50
2022/12/18 04:04:53;;;;;;;50.20;19.88;;;;;;;-4.93;99.82;101767.88;8343027;28;20490;-51
2022/12/18 04:08:54;;;;;;;42.45;18.17;;;;;;;-4.89;99.75;101772.22;8346398;28;20127;-51
2022/12/18 04:12:59;;;;;;;52.00;18.42;;;;;;;-4.88;99.15;101763.41;8343380;28;20041;-50
2022/12/18 04:17:01;;;;;;;50.70;18.60;;;;;;;-4.86;99.14;101764.28;8342905;28;20040;-51
2022/12/18 04:21:06;;;;;;;43.72;17.55;;;;;;;-4.85;99.32;101776.56;8343223;28;20033;-51
2022/12/18 04:25:08;;;;;;;46.92;18.40;;;;;;;-4.89;99.39;101753.75;8343334;28;20528;-50
2022/12/18 04:29:12;;;;;;;45.13;18.67;;;;;;;-4.90;98.94;101757.28;8342273;28;20038;-50
2022/12/18 04:33:14;;;;;;;50.75;20.15;;;;;;;-4.86;99.01;101755.47;8342761;28;20187;-50
2022/12/18 04:37:15;;;;;;;51.47;17.77;;;;;;;-4.89;99.38;101743.22;8342052;28;20033;-50
2022/12/18 04:41:16;;;;;;;51.92;18.30;;;;;;;-4.89;99.03;101748.47;8342071;28;20453;-51
2022/12/18 04:45:20;;;;;;;;;;;;;;;-4.88;98.90;101758.13;8341271;28;20124;-50
2022/12/18 04:49:20;;;;;;;42.97;16.80;;;;;;;-4.85;98.14;101744.91;8341196;28;19916;-50
2022/12/18 04:53:21;;;;;;;46.65;17.85;;;;;;;-4.86;98.23;101748.44;8341688;28;20112;-51
2022/12/18 04:57:22;;;;;;;46.03;17.02;;;;;;;-4.87;97.87;101741.44;8341319;28;20033;-52
2022/12/18 05:01:22;;;;;;;48.38;19.05;;;;;;;-4.86;98.54;101737.03;8340728;28;20040;-52
2022/12/18 05:05:23;;;;;;;51.78;19.02;;;;;;;-4.80;97.88;101726.41;8341617;28;20084;-52
2022/12/18 05:09:23;;;;;;;45.17;19.00;;;;;;;-4.85;97.41;101718.53;8341364;28;20033;-52
2022/12/18 05:13:24;;;;;;;48.47;18.65;;;;;;;-4.77;98.00;101724.63;8339506;28;20036;-50
2022/12/18 05:17:25;;;;;;;46.08;17.23;;;;;;;-4.70;97.52;101723.66;8340906;28;20092;-52
2022/12/18 05:21:25;;;;;;;39.17;15.93;;;;;;;-4.72;97.10;101728.09;8340740;28;20495;-50
2022/12/18 05:25:26;;;;;;;46.08;18.05;;;;;;;-4.59;97.33;101745.53;8342015;28;20099;-50
2022/12/18 05:29:27;;;;;;;40.90;17.17;;;;;;;-4.54;96.58;101756.91;8339208;28;20072;-50
2022/12/18 05:33:31;;;;;;;38.72;16.38;;;;;;;-4.43;96.53;101762.06;8341362;28;20037;-50
2022/12/18 05:37:32;;;;;;;46.88;19.85;;;;;;;-4.46;96.52;101760.34;8349469;28;20040;-52
2022/12/18 05:41:32;;;;;;;47.22;19.25;;;;;;;-4.46;95.97;101765.63;8322615;28;20042;-51
2022/12/18 05:45:38;;;;;;;46.28;19.27;;;;;;;-4.46;96.31;101764.72;8307378;28;20125;-51
2022/12/18 05:49:38;;;;;;;49.55;18.83;;;;;;;-4.50;95.74;101785.03;8320566;28;20107;-50
2022/12/18 05:53:39;;;;;;;50.83;19.83;;;;;;;-4.48;96.20;101803.47;8336983;28;20105;-50
2022/12/18 05:57:39;;;;;;;50.72;21.40;;;;;;;-4.52;96.67;101807.91;8335978;28;20057;-51
2022/12/18 06:01:40;;;;;;;61.20;19.95;;;;;;;-4.51;96.30;101801.72;8335880;28;20071;-50
2022/12/18 06:05:43;;;;;;;47.08;18.50;;;;;;;-4.47;96.48;101790.25;8336898;28;20033;-50
2022/12/18 06:09:44;;;;;;;41.90;19.67;;;;;;;-4.38;96.60;101787.53;8330685;28;20124;-51
2022/12/18 06:13:44;;;;;;;56.83;22.00;;;;;;;-4.36;96.12;101791.00;8310456;28;20517;-50
2022/12/18 06:17:45;;;;;;;48.28;19.90;;;;;;;-4.31;96.07;101801.50;8307681;28;20518;-50
2022/12/18 06:21:45;;;;;;;43.95;17.20;;;;;;;-4.33;96.66;101804.16;8345829;28;20438;-50
2022/12/18 06:25:46;;;;;;;50.90;20.60;;;;;;;-4.35;96.31;101799.81;8348576;28;20042;-50
2022/12/18 06:29:47;;;;;;;58.67;21.38;;;;;;;-4.36;96.66;101804.19;8320255;28;20146;-52
2022/12/18 06:33:48;;;;;;;51.88;20.75;;;;;;;-4.40;97.10;101797.22;8333265;28;20342;-51
2022/12/18 06:37:48;;;;;;;53.45;21.35;;;;;;;-4.38;96.28;101790.16;8337567;28;20037;-50
2022/12/18 06:41:49;;;;;;;49.53;18.48;;;;;;;-4.41;96.35;101779.66;8330911;28;20042;-50
2022/12/18 06:45:52;;;;;;;51.13;20.17;;;;;;;-4.45;96.82;101780.53;8309841;28;20041;-51
2022/12/18 06:49:53;;;;;;;47.33;20.80;;;;;;;-4.45;96.89;101775.28;8323053;28;20129;-51
2022/12/18 06:53:53;;;;;;;57.67;22.13;;;;;;;-4.44;97.00;101763.84;8342893;28;20037;-50
2022/12/18 06:57:54;;;;;;;51.80;20.33;;;;;;;-4.39;96.84;101759.38;8336819;28;20098;-50
2022/12/18 07:01:54;;;;;;;53.20;20.20;;;;;;;-4.43;96.38;101755.03;8337590;28;20047;-51
2022/12/18 07:05:55;;;;;;;52.28;22.60;;;;;;;-4.45;97.11;101766.50;8330402;28;20117;-50
2022/12/18 07:09:56;;;;;;;56.70;21.90;;;;;;;-4.36;96.95;101776.97;8349924;28;20041;-50
2022/12/18 07:13:56;;;;;;;54.90;23.15;;;;;;;-4.40;96.45;101765.56;8355563;28;20048;-50
2022/12/18 07:17:57;;;;;;;53.65;21.58;;;;;;;-4.41;96.80;101758.53;8333926;28;20059;-50
2022/12/18 07:21:58;;;;;;;52.38;21.05;;;;;;;-4.36;96.46;101756.69;8334756;28;20029;-50
2022/12/18 07:26:04;;;;;;;50.42;19.85;;;;;;;-4.31;96.54;101760.16;8328872;28;20033;-51
2022/12/18 07:30:06;;;;;;;57.45;22.10;;;;;;;-4.31;96.40;101760.16;8336097;28;20487;-50
2022/12/18 07:34:11;;;;;;;62.83;22.05;;;;;;;-4.27;96.23;101766.31;8342722;28;20036;-51
2022/12/18 07:38:12;;;;;;;48.53;20.88;;;;;;;-4.26;95.99;101768.94;8336507;28;20037;-51
2022/12/18 07:42:43;;;;;;;50.63;20.38;;;;;;;-4.25;96.55;101778.56;8337446;28;20037;-50
2022/12/18 07:46:33;;;;;;;50.15;21.73;;;;;;;-4.17;95.87;101774.06;8333933;28;20065;-51
2022/12/18 07:50:34;;;;;;;54.53;23.55;;;;;;;-4.12;95.59;101780.16;8333822;28;20532;-53
2022/12/18 07:54:35;;;;;;;45.70;18.90;;;;;;;-4.11;95.35;101762.56;8328987;28;20113;-51
2022/12/18 07:58:36;;;;;;;49.55;20.88;;;;;;;-4.11;95.88;101755.50;8336372;28;20038;-50
2022/12/18 08:02:37;;;;;;;50.35;18.60;;;;;;;-4.02;95.66;101741.34;8333557;28;20045;-51
2022/12/18 08:06:37;;;;;;;60.65;21.08;;;;;;;-3.95;95.56;101726.28;8327538;28;20076;-50
2022/12/18 08:10:39;;;;;;;49.78;19.98;;;;;;;-3.92;95.68;101711.28;8329317;28;20419;-51
2022/12/18 08:14:39;;;;;;;53.63;21.58;;;;;;;-3.80;94.56;101710.22;8328555;28;20038;-52
2022/12/18 08:18:40;;;;;;;52.92;21.33;;;;;;;-3.68;94.76;101716.22;8334217;28;20526;-51
2022/12/18 08:22:42;;;;;;;46.53;20.13;;;;;;;-3.57;93.98;101694.91;8325563;28;20041;-50
2022/12/18 08:26:42;;;;;;;51.65;22.00;;;;;;;-3.46;93.12;101696.47;8323614;28;20033;-53
2022/12/18 08:30:43;;;;;;;50.10;21.05;;;;;;;-3.30;92.93;101707.69;8324472;28;20042;-50
2022/12/18 08:34:44;;;;;;;61.75;20.98;;;;;;;-3.09;92.64;101680.84;8332605;28;20060;-51
2022/12/18 08:38:45;;;;;;;52.95;21.65;;;;;;;-2.73;90.50;101689.00;8337926;28;20040;-50
2022/12/18 08:47:06;;;;;;;47.63;19.30;;;;;;;-1.95;87.02;101710.34;8331935;28;20041;-52
2022/12/18 08:51:09;;;;;;;41.95;19.80;;;;;;;-1.39;83.74;101712.56;8336096;28;20536;-51
2022/12/18 08:55:10;;;;;;;42.80;16.25;;;;;;;-0.99;83.13;101697.41;8345397;28;20045;-51
2022/12/18 08:59:10;;;;;;;48.55;19.08;;;;;;;-0.72;81.35;101695.81;8323116;28;20554;-54
2022/12/18 09:03:13;;;;;;;47.47;19.40;;;;;;;-0.59;80.33;101687.47;8337234;28;20046;-52
2022/12/18 09:07:14;;;;;;;43.83;18.38;;;;;;;-1.19;81.46;101694.38;8340241;28;20097;-50
2022/12/18 09:11:21;;;;;;;43.28;18.90;;;;;;;-1.50;82.81;101704.00;8333433;28;20499;-51
2022/12/18 09:15:22;;;;;;;44.30;20.17;;;;;;;-1.70;84.27;101706.25;8300226;28;20418;-50
2022/12/18 09:19:23;;;;;;;47.53;19.92;;;;;;;-1.38;84.92;101682.50;8331599;28;20029;-51
2022/12/18 09:23:23;;;;;;;49.42;19.60;;;;;;;-0.85;82.26;101668.72;8336032;28;20122;-51
2022/12/18 09:27:49;;;;;;;47.03;20.63;;;;;;;0.08;79.06;101669.56;8332070;28;20035;-50
2022/12/18 09:31:49;;;;;;;42.15;16.20;;;;;;;0.37;77.19;101650.91;8305595;28;20096;-50
2022/12/18 09:35:50;;;;;;;38.38;18.33;;;;;;;-0.49;79.23;101650.91;8331762;28;20065;-50
2022/12/18 09:39:50;;;;;;;44.92;18.52;;;;;;;-0.97;81.88;101669.06;8339080;28;20041;-52
2022/12/18 09:43:59;;;;;;;47.63;21.05;;;;;;;-0.68;81.50;101650.56;8334359;28;20044;-53
2022/12/18 09:48:00;;;;;;;34.90;15.63;;;;;;;-0.73;82.00;101652.44;8316719;28;20653;-50
2022/12/18 09:52:08;;;;;;;38.55;17.10;;;;;;;-0.79;82.60;101631.38;8339373;28;20087;-51
2022/12/18 09:56:15;;;;;;;41.90;19.65;;;;;;;-0.77;83.98;101634.88;8334789;28;20086;-50
2022/12/18 10:00:21;;;;;;;43.08;18.50;;;;;;;-0.79;83.23;101625.22;8337818;28;20067;-51
2022/12/18 10:04:24;;;;;;;40.72;19.80;;;;;;;-0.66;82.99;101622.19;8336633;28;20124;-50
2022/12/18 10:08:39;;;;;;;44.85;18.55;;;;;;;-0.53;82.86;101612.06;8325929;28;20123;-50
2022/12/18 10:13:07;;;;;;;37.95;18.50;;;;;;;-0.05;81.99;101616.81;8334278;28;20104;-51
2022/12/18 10:17:40;;;;;;;36.20;17.02;;;;;;;0.43;79.20;101621.47;8322183;28;20061;-50
2022/12/18 10:21:49;;;;;;;;;;;;;;;0.57;79.07;101629.84;8323166;28;20443;-50
2022/12/18 10:26:10;;;;;;;42.03;18.35;;;;;;;1.05;77.83;101605.09;8345433;28;20402;-50
2022/12/18 10:30:14;;;;;;;42.90;17.92;;;;;;;1.07;77.00;101607.72;8324700;28;20038;-50
2022/12/18 10:34:15;;;;;;;42.70;20.02;;;;;;;0.83;76.57;101608.56;8338276;28;20032;-50
2022/12/18 10:42:29;;;;;;;40.80;17.38;;;;;;;0.50;78.36;101591.97;8385688;27;20981;-51
2022/12/18 10:46:30;;;;;;;42.47;18.75;;;;;;;0.40;79.18;101593.19;8383482;28;20407;-54
2022/12/18 10:50:34;;;;;;;44.20;18.23;;;;;;;0.14;78.91;101582.53;8383912;28;20064;-52
2022/12/18 10:54:36;;;;;;;41.75;17.33;;;;;;;0.10;79.71;101575.56;8383219;28;20047;-51
2022/12/18 10:58:38;;;;;;;43.45;19.13;;;;;;;0.22;79.86;101571.63;8376164;28;20043;-50
2022/12/18 11:02:39;;;;;;;43.67;19.08;;;;;;;0.28;79.15;101592.72;8366855;28;20047;-54
2022/12/18 11:06:56;;;;;;;39.35;18.27;;;;;;;0.35;79.86;101594.25;8366514;28;20049;-51
2022/12/18 11:10:57;;;;;;;45.33;19.58;;;;;;;0.23;80.01;101586.66;8333575;28;20071;-50
2022/12/18 11:14:59;;;;;;;46.97;22.25;;;;;;;0.17;80.70;101584.19;8336198;28;20037;-50
2022/12/18 11:19:26;;;;;;;46.90;20.08;;;;;;;0.23;81.28;101579.56;8365768;28;20037;-53
2022/12/18 11:23:27;;;;;;;42.50;18.83;;;;;;;0.19;80.75;101571.75;8365848;28;20037;-51
2022/12/18 11:27:52;;;;;;;42.17;19.67;;;;;;;-0.04;81.80;101559.19;8365434;28;20576;-50
2022/12/18 11:32:22;;;;;;;44.67;19.65;;;;;;;0.10;82.09;101558.75;8372872;28;20044;-53
2022/12/18 11:36:23;;;;;;;46.30;19.23;;;;;;;0.01;81.83;101541.31;8387076;28;20039;-51
2022/12/18 11:40:34;;;;;;;47.47;22.83;;;;;;;0.03;82.27;101546.59;8398830;28;20060;-52
2022/12/18 11:44:59;;;;;;;47.70;22.58;;;;;;;-0.07;82.24;101544.22;8398842;28;20052;-52
2022/12/18 11:49:22;;;;;;;47.25;22.45;;;;;;;-0.08;82.89;101537.19;8398148;28;20036;-54
2022/12/18 11:53:25;;;;;;;46.90;18.40;;;;;;;-0.05;83.20;101521.13;8379043;28;20036;-52
2022/12/18 11:57:46;;;;;;;44.80;21.27;;;;;;;-0.10;83.10;101485.84;8372161;28;20282;-50
2022/12/18 12:06:32;;;;;;;71.38;21.83;;;;;;;-0.01;83.32;101511.25;8402035;27;20401;-54
2022/12/18 12:10:59;;;;;;;49.78;21.08;;;;;;;0.03;83.40;101497.81;8400556;28;20396;-51
2022/12/18 12:15:17;;;;;;;44.25;19.98;;;;;;;0.08;83.83;101491.47;8399524;28;20529;-50
2022/12/18 12:19:37;;;;;;;49.90;21.67;;;;;;;0.08;82.90;101499.44;8399907;28;20044;-50
2022/12/18 12:23:50;;;;;;;62.33;21.63;;;;;;;0.04;82.70;101496.03;8400505;28;20040;-50
2022/12/18 12:28:13;;;;;;;47.72;19.48;;;;;;;0.16;82.56;101497.41;8398846;27;20033;-52
2022/12/18 12:32:36;;;;;;;47.72;21.50;;;;;;;0.11;82.53;101488.69;8399761;27;20041;-50
2022/12/18 12:36:46;;;;;;;53.70;22.15;;;;;;;0.20;82.17;101483.97;8415635;27;20094;-51
2022/12/18 12:40:53;;;;;;;51.58;22.23;;;;;;;0.16;82.12;101490.31;8416275;27;20363;-50
2022/12/18 12:44:58;;;;;;;48.20;21.63;;;;;;;0.26;82.77;101504.13;8398862;27;20043;-50
2022/12/18 12:49:04;;;;;;;44.55;20.42;;;;;;;0.29;81.73;101504.03;8385533;27;20135;-50
2022/12/18 12:53:09;;;;;;;45.22;19.80;;;;;;;0.29;81.00;101498.72;8385980;27;20390;-51
2022/12/18 12:57:21;;;;;;;46.13;21.08;;;;;;;0.26;80.36;101498.81;8378472;27;20502;-51
2022/12/18 13:01:52;;;;;;;46.85;20.52;;;;;;;0.30;80.93;101489.84;8386931;27;20032;-51
2022/12/18 13:06:00;;;;;;;45.28;20.25;;;;;;;0.22;81.30;101486.56;8386242;27;20040;-51
2022/12/18 13:10:25;;;;;;;49.67;22.80;;;;;;;0.15;81.48;101480.56;8398461;28;20180;-51
2022/12/18 13:14:32;;;;;;;46.72;21.73;;;;;;;0.06;81.92;101461.44;8390445;28;20120;-54
2022/12/18 13:18:33;;;;;;;47.38;21.20;;;;;;;0.00;82.06;101452.72;8375997;28;20092;-50
2022/12/18 13:22:40;;;;;;;50.95;23.27;;;;;;;-0.04;82.36;101445.78;8376653;28;20052;-51
2022/12/18 13:26:41;;;;;;;49.42;22.15;;;;;;;-0.01;82.76;101443.03;8375746;28;20045;-53
2022/12/18 13:30:52;;;;;;;50.85;22.75;;;;;;;-0.02;82.30;101446.63;8375909;28;20521;-54
2022/12/18 13:39:33;;;;;;;49.20;21.63;;;;;;;0.01;82.25;101427.88;8350544;27;20395;-50
2022/12/18 13:43:42;;;;;;;52.92;20.48;;;;;;;0.01;82.84;101414.59;8351082;28;20036;-52
2022/12/18 13:47:43;;;;;;;51.28;23.88;;;;;;;-0.06;82.75;101415.72;8349642;28;20249;-50
2022/12/18 13:51:49;;;;;;;50.00;22.08;;;;;;;-0.08;83.08;101425.56;8350598;28;20034;-53
2022/12/18 13:55:50;;;;;;;53.88;23.30;;;;;;;-0.11;83.14;101424.78;8349204;28;20038;-54
2022/12/18 13:59:51;;;;;;;53.63;25.60;;;;;;;-0.12;83.03;101413.28;8350039;28;20092;-50
2022/12/18 14:04:08;;;;;;;49.08;22.65;;;;;;;-0.15;84.13;101410.72;8350609;28;20037;-50
2022/12/18 14:08:13;;;;;;;56.08;22.50;;;;;;;-0.15;83.46;101418.69;8348249;28;20048;-52
2022/12/18 14:13:00;;;;;;;46.97;20.05;;;;;;;-0.09;83.43;101397.22;8349966;28;20037;-51
2022/12/18 14:16:50;;;;;;;46.40;20.77;;;;;;;-0.12;83.24;101407.13;8344657;28;20536;-50
2022/12/18 14:20:54;;;;;;;53.08;23.80;;;;;;;-0.17;83.27;101398.41;8349830;28;20069;-50
2022/12/18 14:25:17;;;;;;;53.65;22.52;;;;;;;-0.18;83.25;101389.56;8349277;28;20049;-50
2022/12/18 14:29:24;;;;;;;46.72;21.05;;;;;;;-0.21;83.87;101402.13;8348791;28;20112;-50
2022/12/18 14:33:27;;;;;;;51.13;21.08;;;;;;;-0.22;83.31;101389.72;8321470;28;20040;-51
2022/12/18 14:37:28;;;;;;;65.45;25.40;;;;;;;-0.23;83.33;101383.56;8336402;28;20037;-50
2022/12/18 14:41:28;;;;;;;61.88;25.00;;;;;;;-0.25;83.20;101380.06;8348878;28;20048;-51
2022/12/18 14:49:45;;;;;;;56.70;24.00;;;;;;;-0.23;83.50;101372.06;8401046;27;20485;-50
2022/12/18 14:53:48;;;;;;;57.47;23.40;;;;;;;-0.20;82.93;101375.50;8399513;27;20033;-50
2022/12/18 14:57:54;;;;;;;63.70;23.30;;;;;;;-0.19;83.23;101373.69;8397976;27;20068;-53
2022/12/18 15:02:23;;;;;;;56.00;23.73;;;;;;;-0.19;82.20;101376.34;8400254;27;20036;-51
2022/12/18 15:06:35;;;;;;;58.88;24.67;;;;;;;-0.28;82.33;101374.88;8394750;27;20041;-50
2022/12/18 15:10:47;;;;;;;56.63;22.88;;;;;;;-0.25;82.60;101376.53;8398187;28;20036;-52
2022/12/18 15:14:47;;;;;;;59.50;25.20;;;;;;;-0.34;82.62;101364.44;8399080;28;20544;-50
2022/12/18 15:18:48;;;;;;;57.67;24.38;;;;;;;-0.37;82.55;101364.56;8397995;28;20036;-51
2022/12/18 15:22:49;;;;;;;68.13;26.40;;;;;;;-0.39;82.77;101371.69;8397713;28;20495;-51
2022/12/18 15:26:49;;;;;;;51.28;20.17;;;;;;;-0.39;82.63;101355.75;8397972;28;20075;-51
2022/12/18 15:35:24;;;;;;;69.63;22.58;;;;;;;-0.40;82.88;101372.63;8386875;27;20419;-50
2022/12/18 15:39:25;;;;;;;53.55;24.35;;;;;;;-0.40;83.60;101354.03;8384671;27;20047;-51
2022/12/18 15:43:33;;;;;;;54.85;26.20;;;;;;;-0.50;83.59;101336.69;8396015;27;20048;-50
2022/12/18 15:47:34;;;;;;;93.15;25.52;;;;;;;-0.51;84.07;101345.56;8381136;28;20583;-51
2022/12/18 15:51:37;;;;;;;74.20;24.58;;;;;;;-0.52;83.63;101359.75;8382353;28;20445;-50
2022/12/18 15:59:58;;;;;;;61.42;24.42;;;;;;;-0.47;84.61;101367.56;8376785;28;20040;-51
2022/12/18 16:03:59;;;;;;;53.15;23.80;;;;;;;-0.43;84.58;101369.19;8380583;27;20576;-51
2022/12/18 16:07:59;;;;;;;57.78;25.40;;;;;;;-0.38;84.56;101373.44;8377363;27;20058;-51
2022/12/18 16:12:00;;;;;;;60.17;23.83;;;;;;;-0.36;84.83;101350.34;8390289;27;20405;-51
2022/12/18 16:16:00;;;;;;;57.80;20.63;;;;;;;-0.25;84.45;101357.94;8376949;28;20043;-52
2022/12/18 16:20:01;;;;;;;91.25;21.48;;;;;;;-0.16;84.29;101360.28;8381767;27;20036;-52
2022/12/18 16:24:02;;;;;;;51.75;23.65;;;;;;;-0.16;84.08;101355.84;8384604;27;20024;-52
2022/12/18 16:28:03;;;;;;;56.53;23.88;;;;;;;-0.16;84.54;101350.53;8374099;27;20103;-51
2022/12/18 16:32:04;;;;;;;50.13;22.00;;;;;;;-0.13;84.62;101358.41;8370745;28;20033;-51
2022/12/18 16:36:05;;;;;;;54.42;23.30;;;;;;;-0.17;84.75;101362.09;8379964;27;20044;-51
2022/12/18 16:40:09;;;;;;;53.90;22.35;;;;;;;-0.12;84.30;101353.97;8396751;27;20051;-52
2022/12/18 16:44:10;;;;;;;49.65;22.85;;;;;;;-0.09;84.61;101354.72;8377834;27;20106;-51
2022/12/18 16:48:10;;;;;;;47.50;22.83;;;;;;;-0.10;84.74;101352.09;8359737;28;20186;-54
2022/12/18 16:52:11;;;;;;;50.50;20.08;;;;;;;-0.08;84.52;101337.88;8359335;28;20037;-50
2022/12/18 16:56:11;;;;;;;54.72;24.50;;;;;;;-0.06;84.35;101362.56;8324494;28;20048;-54
2022/12/18 17:00:13;;;;;;;51.17;22.23;;;;;;;-0.06;84.30;101365.25;8325102;28;20434;-52
2022/12/18 17:04:16;;;;;;;58.78;24.65;;;;;;;-0.09;84.95;101362.69;8326326;28;20043;-50
2022/12/18 17:08:17;;;;;;;50.45;22.65;;;;;;;-0.11;84.83;101369.88;8330584;28;20053;-52
2022/12/18 17:12:17;;;;;;;55.65;23.17;;;;;;;-0.13;85.24;101358.41;8331855;28;20086;-50
2022/12/18 17:16:18;;;;;;;58.45;25.75;;;;;;;-0.16;85.32;101347.88;8331048;28;20041;-50
2022/12/18 17:20:19;;;;;;;54.90;21.90;;;;;;;-0.13;85.69;101347.78;8335980;28;20041;-50
2022/12/18 17:24:21;;;;;;;61.05;27.80;;;;;;;-0.16;85.79;101329.28;8335073;28;20057;-51
2022/12/18 17:28:24;;;;;;;56.13;23.42;;;;;;;-0.17;85.77;101319.59;8332419;28;20041;-52
2022/12/18 17:32:25;;;;;;;66.83;29.07;;;;;;;-0.17;85.74;101319.59;8334822;28;20060;-52
2022/12/18 17:36:30;;;;;;;64.90;26.70;;;;;;;-0.20;86.23;101330.31;8320742;28;20117;-50
2022/12/18 17:40:32;;;;;;;61.60;27.20;;;;;;;-0.20;87.01;101340.97;8307063;28;20034;-50
2022/12/18 17:44:35;;;;;;;68.47;27.73;;;;;;;-0.19;87.33;101344.47;8326635;28;20347;-50
2022/12/18 17:48:36;;;;;;;62.17;24.95;;;;;;;-0.17;87.61;101324.91;8331851;28;20062;-49
2022/12/18 17:52:36;;;;;;;63.10;25.48;;;;;;;-0.13;87.73;101326.53;8335481;28;20049;-49
2022/12/18 17:56:38;;;;;;;60.30;24.45;;;;;;;-0.06;87.70;101336.00;8333153;28;20041;-50
2022/12/18 18:00:38;;;;;;;54.78;25.85;;;;;;;-0.03;87.49;101354.50;8327044;28;20463;-50
2022/12/18 18:04:39;;;;;;;61.72;25.15;;;;;;;0.01;87.68;101339.31;8326688;28;20048;-49
2022/12/18 18:08:40;;;;;;;59.30;24.05;;;;;;;0.04;87.69;101350.69;8339103;28;20069;-49
2022/12/18 18:17:02;;;;;;;56.75;22.90;;;;;;;0.06;87.99;101328.53;8350722;28;20029;-49
2022/12/18 18:21:05;;;;;;;54.85;22.80;;;;;;;0.11;88.17;101330.09;8346235;28;20055;-50
2022/12/18 18:25:07;;;;;;;61.13;25.35;;;;;;;0.10;87.81;101330.16;8334640;28;20041;-49
2022/12/18 18:29:08;;;;;;;64.85;26.70;;;;;;;0.02;88.23;101335.72;8323112;28;20573;-49
2022/12/18 18:33:09;;;;;;;63.88;24.73;;;;;;;0.07;88.45;101316.97;8316717;28;20816;-53
2022/12/18 18:37:10;;;;;;;61.67;25.90;;;;;;;0.09;88.08;101341.72;8332255;28;20132;-52
2022/12/18 18:41:11;;;;;;;63.08;25.75;;;;;;;0.10;88.34;101343.44;8325839;28;20091;-49
2022/12/18 18:45:12;;;;;;;63.30;25.42;;;;;;;0.15;87.90;101333.53;8315643;28;20100;-53
2022/12/18 18:49:13;;;;;;;59.08;26.05;;;;;;;0.23;87.29;101328.78;8336296;28;20041;-53
2022/12/18 18:53:14;;;;;;;64.35;25.95;;;;;;;0.14;87.61;101318.47;8343044;28;20060;-53
2022/12/18 18:57:15;;;;;;;65.55;26.33;;;;;;;0.03;88.29;101306.44;8333008;28;20044;-50
2022/12/18 19:01:19;;;;;;;68.00;28.27;;;;;;;-0.06;87.62;101321.88;8326914;28;20125;-52
2022/12/18 19:05:21;;;;;;;61.42;26.95;;;;;;;-0.10;87.51;101321.09;8320819;28;20411;-49
2022/12/18 19:09:22;;;;;;;76.38;28.23;;;;;;;-0.13;88.10;101321.22;8332482;28;20032;-53
2022/12/18 19:13:26;;;;;;;72.57;29.45;;;;;;;-0.19;88.22;101316.09;8324717;28;20099;-52